sensor_id;sensor_type;location;lat;lon;timestamp;pressure;altitude;pressure_sealevel;temperature;humidity
54122;BME280;40029;58.708;50.190;2022-11-22T00:00:34;100668.22;;;-10.60;36.78
54122;BME280;40029;58.708;50.190;2022-11-22T00:03:05;100651.41;;;-10.74;36.58
54122;BME280;40029;58.708;50.190;2022-11-22T00:05:37;100675.03;;;-10.72;36.74
54122;BME280;40029;58.708;50.190;2022-11-22T00:08:08;100677.47;;;-10.73;36.45
54122;BME280;40029;58.708;50.190;2022-11-22T00:10:39;100679.38;;;-10.69;36.68
54122;BME280;40029;58.708;50.190;2022-11-22T00:13:10;100672.78;;;-10.67;36.90
54122;BME280;40029;58.708;50.190;2022-11-22T00:15:41;100678.22;;;-10.61;36.86
54122;BME280;40029;58.708;50.190;2022-11-22T00:18:12;100667.72;;;-10.54;36.88
54122;BME280;40029;58.708;50.190;2022-11-22T00:20:43;100613.78;;;-10.86;36.80
54122;BME280;40029;58.708;50.190;2022-11-22T00:23:15;100665.38;;;-10.51;37.32
54122;BME280;40029;58.708;50.190;2022-11-22T00:25:46;100660.81;;;-10.43;37.52
54122;BME280;40029;58.708;50.190;2022-11-22T00:28:17;100668.13;;;-10.33;37.03
54122;BME280;40029;58.708;50.190;2022-11-22T00:30:48;100642.66;;;-10.38;37.24
54122;BME280;40029;58.708;50.190;2022-11-22T00:33:19;100650.88;;;-10.27;37.25
54122;BME280;40029;58.708;50.190;2022-11-22T00:35:50;100664.31;;;-10.12;37.15
54122;BME280;40029;58.708;50.190;2022-11-22T00:38:21;100660.16;;;-10.11;37.33
54122;BME280;40029;58.708;50.190;2022-11-22T00:40:52;100657.75;;;-10.10;37.36
54122;BME280;40029;58.708;50.190;2022-11-22T00:43:23;100641.91;;;-10.07;37.39
54122;BME280;40029;58.708;50.190;2022-11-22T00:45:54;100654.47;;;-9.94;37.33
54122;BME280;40029;58.708;50.190;2022-11-22T00:48:25;100661.41;;;-9.90;37.07
54122;BME280;40029;58.708;50.190;2022-11-22T00:50:56;100658.13;;;-9.89;36.98
54122;BME280;40029;58.708;50.190;2022-11-22T00:53:27;100563.44;;;-10.43;37.25
54122;BME280;40029;58.708;50.190;2022-11-22T00:55:58;100578.22;;;-10.34;37.07
54122;BME280;40029;58.708;50.190;2022-11-22T00:58:29;100654.28;;;-9.82;37.26
54122;BME280;40029;58.708;50.190;2022-11-22T01:01:00;100654.19;;;-9.84;37.09
54122;BME280;40029;58.708;50.190;2022-11-22T01:03:31;100644.19;;;-9.82;37.49
54122;BME280;40029;58.708;50.190;2022-11-22T01:06:02;100653.78;;;-9.76;37.12
54122;BME280;40029;58.708;50.190;2022-11-22T01:08:33;100593.59;;;-10.00;37.17
54122;BME280;40029;58.708;50.190;2022-11-22T01:11:04;100657.75;;;-9.65;37.37
54122;BME280;40029;58.708;50.190;2022-11-22T01:13:35;100600.81;;;-9.91;36.80
54122;BME280;40029;58.708;50.190;2022-11-22T01:16:07;100641.94;;;-9.63;37.04
54122;BME280;40029;58.708;50.190;2022-11-22T01:18:39;100650.56;;;-9.59;37.11
54122;BME280;40029;58.708;50.190;2022-11-22T01:21:10;100646.28;;;-9.60;37.50
54122;BME280;40029;58.708;50.190;2022-11-22T01:23:41;100657.34;;;-9.58;37.37
54122;BME280;40029;58.708;50.190;2022-11-22T01:26:12;100651.50;;;-9.57;37.46
54122;BME280;40029;58.708;50.190;2022-11-22T01:28:43;100644.34;;;-9.64;37.54
54122;BME280;40029;58.708;50.190;2022-11-22T01:31:14;100654.44;;;-9.64;37.52
54122;BME280;40029;58.708;50.190;2022-11-22T01:33:45;100659.34;;;-9.67;37.48
54122;BME280;40029;58.708;50.190;2022-11-22T01:36:16;100604.81;;;-9.95;37.51
54122;BME280;40029;58.708;50.190;2022-11-22T01:38:47;100646.72;;;-9.67;37.62
54122;BME280;40029;58.708;50.190;2022-11-22T01:41:18;100648.38;;;-9.68;37.48
54122;BME280;40029;58.708;50.190;2022-11-22T01:43:49;100642.75;;;-9.64;37.39
54122;BME280;40029;58.708;50.190;2022-11-22T01:46:36;100646.56;;;-9.55;37.63
54122;BME280;40029;58.708;50.190;2022-11-22T01:52:27;100661.94;;;-9.51;37.72
54122;BME280;40029;58.708;50.190;2022-11-22T01:55:03;100661.06;;;-9.51;37.60
54122;BME280;40029;58.708;50.190;2022-11-22T01:57:38;100666.47;;;-9.45;37.70
54122;BME280;40029;58.708;50.190;2022-11-22T02:00:14;100608.47;;;-9.75;37.74
54122;BME280;40029;58.708;50.190;2022-11-22T02:02:52;100669.75;;;-9.32;37.51
54122;BME280;40029;58.708;50.190;2022-11-22T02:05:29;100673.38;;;-9.26;37.69
54122;BME280;40029;58.708;50.190;2022-11-22T02:10:43;100672.78;;;-9.22;37.47
54122;BME280;40029;58.708;50.190;2022-11-22T02:13:18;100678.19;;;-9.31;37.82
54122;BME280;40029;58.708;50.190;2022-11-22T02:16:11;100685.16;;;-9.27;37.75
54122;BME280;40029;58.708;50.190;2022-11-22T02:18:42;100624.53;;;-9.58;37.87
54122;BME280;40029;58.708;50.190;2022-11-22T02:21:13;100680.97;;;-9.26;37.62
54122;BME280;40029;58.708;50.190;2022-11-22T02:24:27;100673.31;;;-9.28;37.84
54122;BME280;40029;58.708;50.190;2022-11-22T02:27:01;100650.19;;;-9.36;38.03
54122;BME280;40029;58.708;50.190;2022-11-22T02:29:32;100681.41;;;-9.19;37.84
54122;BME280;40029;58.708;50.190;2022-11-22T02:32:04;100680.00;;;-9.14;37.82
54122;BME280;40029;58.708;50.190;2022-11-22T02:34:46;100674.50;;;-9.07;37.78
54122;BME280;40029;58.708;50.190;2022-11-22T02:37:23;100664.34;;;-9.08;37.68
54122;BME280;40029;58.708;50.190;2022-11-22T02:39:57;100687.56;;;-8.99;38.27
54122;BME280;40029;58.708;50.190;2022-11-22T02:42:31;100678.06;;;-9.03;37.78
54122;BME280;40029;58.708;50.190;2022-11-22T02:45:03;100682.25;;;-9.03;37.59
54122;BME280;40029;58.708;50.190;2022-11-22T02:47:34;100688.16;;;-9.03;37.83
54122;BME280;40029;58.708;50.190;2022-11-22T02:50:06;100680.84;;;-9.13;38.38
54122;BME280;40029;58.708;50.190;2022-11-22T02:52:37;100686.31;;;-9.06;38.15
54122;BME280;40029;58.708;50.190;2022-11-22T02:55:08;100695.03;;;-9.00;38.23
54122;BME280;40029;58.708;50.190;2022-11-22T02:57:39;100692.59;;;-8.99;38.36
54122;BME280;40029;58.708;50.190;2022-11-22T03:00:10;100697.09;;;-8.93;38.07
54122;BME280;40029;58.708;50.190;2022-11-22T03:02:41;100695.94;;;-8.84;37.97
54122;BME280;40029;58.708;50.190;2022-11-22T03:05:12;100699.25;;;-8.85;38.03
54122;BME280;40029;58.708;50.190;2022-11-22T03:07:43;100697.94;;;-8.78;38.31
54122;BME280;40029;58.708;50.190;2022-11-22T03:10:14;100700.91;;;-8.70;38.18
54122;BME280;40029;58.708;50.190;2022-11-22T03:12:45;100699.31;;;-8.68;38.27
54122;BME280;40029;58.708;50.190;2022-11-22T03:15:16;100692.69;;;-8.66;37.96
54122;BME280;40029;58.708;50.190;2022-11-22T03:17:47;100698.22;;;-8.57;38.29
54122;BME280;40029;58.708;50.190;2022-11-22T03:20:18;100702.50;;;-8.56;38.35
54122;BME280;40029;58.708;50.190;2022-11-22T03:22:49;100655.16;;;-8.75;38.08
54122;BME280;40029;58.708;50.190;2022-11-22T03:25:20;100696.25;;;-8.46;38.28
54122;BME280;40029;58.708;50.190;2022-11-22T03:27:51;100657.06;;;-8.71;38.17
54122;BME280;40029;58.708;50.190;2022-11-22T03:30:22;100651.25;;;-8.70;37.81
54122;BME280;40029;58.708;50.190;2022-11-22T03:32:54;100686.25;;;-8.45;38.31
54122;BME280;40029;58.708;50.190;2022-11-22T03:35:25;100657.06;;;-8.71;38.70
54122;BME280;40029;58.708;50.190;2022-11-22T03:37:56;100703.59;;;-8.35;38.44
54122;BME280;40029;58.708;50.190;2022-11-22T03:40:27;100703.22;;;-8.42;38.76
54122;BME280;40029;58.708;50.190;2022-11-22T03:42:59;100702.19;;;-8.46;38.72
54122;BME280;40029;58.708;50.190;2022-11-22T03:45:30;100691.69;;;-8.53;38.91
54122;BME280;40029;58.708;50.190;2022-11-22T03:48:01;100689.69;;;-8.59;39.16
54122;BME280;40029;58.708;50.190;2022-11-22T03:50:32;100637.47;;;-8.91;39.20
54122;BME280;40029;58.708;50.190;2022-11-22T03:53:03;100698.13;;;-8.59;39.45
54122;BME280;40029;58.708;50.190;2022-11-22T03:55:35;100695.78;;;-8.56;39.71
54122;BME280;40029;58.708;50.190;2022-11-22T03:58:06;100649.09;;;-8.78;39.71
54122;BME280;40029;58.708;50.190;2022-11-22T04:00:37;100683.50;;;-8.49;40.07
54122;BME280;40029;58.708;50.190;2022-11-22T04:03:08;100688.91;;;-8.42;39.44
54122;BME280;40029;58.708;50.190;2022-11-22T04:05:39;100697.91;;;-8.47;40.05
54122;BME280;40029;58.708;50.190;2022-11-22T04:08:10;100695.72;;;-8.41;40.01
54122;BME280;40029;58.708;50.190;2022-11-22T04:10:41;100654.81;;;-8.66;40.07
54122;BME280;40029;58.708;50.190;2022-11-22T04:13:12;100709.13;;;-8.42;39.79
54122;BME280;40029;58.708;50.190;2022-11-22T10:31:19;100791.13;;;-5.38;40.49
54122;BME280;40029;58.708;50.190;2022-11-22T10:34:06;100797.13;;;-5.36;40.16
54122;BME280;40029;58.708;50.190;2022-11-22T10:36:48;100784.13;;;-5.43;40.20
54122;BME280;40029;58.708;50.190;2022-11-22T10:50:54;100807.97;;;-5.40;40.66
54122;BME280;40029;58.708;50.190;2022-11-22T10:53:40;100749.41;;;-5.64;40.53
54122;BME280;40029;58.708;50.190;2022-11-22T15:03:20;100815.28;;;-6.95;42.83
54122;BME280;40029;58.708;50.190;2022-11-22T15:06:17;100804.81;;;-7.01;42.68
54122;BME280;40029;58.708;50.190;2022-11-22T15:09:19;100803.03;;;-7.03;42.74
54122;BME280;40029;58.708;50.190;2022-11-22T15:17:43;100811.53;;;-7.19;43.16
54122;BME280;40029;58.708;50.190;2022-11-22T15:20:34;100816.09;;;-7.12;43.28
54122;BME280;40029;58.708;50.190;2022-11-22T15:23:19;100826.16;;;-7.14;43.37
54122;BME280;40029;58.708;50.190;2022-11-22T15:26:02;100819.50;;;-7.12;43.21
54122;BME280;40029;58.708;50.190;2022-11-22T15:28:48;100832.63;;;-7.02;43.02
54122;BME280;40029;58.708;50.190;2022-11-22T15:31:21;100825.88;;;-7.02;43.03
54122;BME280;40029;58.708;50.190;2022-11-22T15:33:54;100821.84;;;-6.98;42.78
54122;BME280;40029;58.708;50.190;2022-11-22T15:37:01;100826.22;;;-6.96;42.97
54122;BME280;40029;58.708;50.190;2022-11-22T15:39:33;100826.06;;;-6.99;42.68
54122;BME280;40029;58.708;50.190;2022-11-22T15:42:14;100820.50;;;-6.92;42.58
54122;BME280;40029;58.708;50.190;2022-11-22T15:44:46;100818.38;;;-7.00;42.57
54122;BME280;40029;58.708;50.190;2022-11-22T15:47:19;100820.84;;;-7.18;42.63
54122;BME280;40029;58.708;50.190;2022-11-22T15:49:51;100820.84;;;-7.18;42.77
54122;BME280;40029;58.708;50.190;2022-11-22T15:52:23;100832.25;;;-7.26;42.79
54122;BME280;40029;58.708;50.190;2022-11-22T15:54:57;100827.28;;;-7.25;42.78
54122;BME280;40029;58.708;50.190;2022-11-22T15:57:32;100834.31;;;-7.36;42.65
54122;BME280;40029;58.708;50.190;2022-11-22T16:00:22;100827.19;;;-7.26;42.66
54122;BME280;40029;58.708;50.190;2022-11-22T16:02:56;100805.84;;;-7.48;42.17
54122;BME280;40029;58.708;50.190;2022-11-22T16:05:31;100809.75;;;-7.38;42.04
54122;BME280;40029;58.708;50.190;2022-11-22T16:08:04;100830.94;;;-7.36;42.17
54122;BME280;40029;58.708;50.190;2022-11-22T16:10:38;100822.53;;;-7.35;42.38
54122;BME280;40029;58.708;50.190;2022-11-22T16:13:24;100814.88;;;-7.37;42.06
54122;BME280;40029;58.708;50.190;2022-11-22T16:18:43;100817.56;;;-7.50;42.42
54122;BME280;40029;58.708;50.190;2022-11-22T16:23:46;100824.38;;;-7.65;42.22
54122;BME280;40029;58.708;50.190;2022-11-22T16:28:52;100820.09;;;-7.66;42.44
54122;BME280;40029;58.708;50.190;2022-11-22T16:31:29;100802.78;;;-7.75;42.47
54122;BME280;40029;58.708;50.190;2022-11-22T16:34:01;100811.88;;;-7.78;42.36
54122;BME280;40029;58.708;50.190;2022-11-22T16:36:32;100811.63;;;-7.83;42.44
54122;BME280;40029;58.708;50.190;2022-11-22T16:39:03;100786.72;;;-8.08;42.37
54122;BME280;40029;58.708;50.190;2022-11-22T16:41:34;100744.97;;;-8.33;42.21
54122;BME280;40029;58.708;50.190;2022-11-22T16:44:10;100815.19;;;-7.96;42.14
54122;BME280;40029;58.708;50.190;2022-11-22T16:46:42;100818.44;;;-7.98;42.53
54122;BME280;40029;58.708;50.190;2022-11-22T16:49:20;100818.28;;;-8.01;42.33
54122;BME280;40029;58.708;50.190;2022-11-22T16:51:52;100804.41;;;-8.08;42.25
54122;BME280;40029;58.708;50.190;2022-11-22T16:54:23;100810.69;;;-8.01;42.46
54122;BME280;40029;58.708;50.190;2022-11-22T16:56:54;100798.03;;;-8.01;42.24
54122;BME280;40029;58.708;50.190;2022-11-22T16:59:25;100750.44;;;-8.25;42.53
54122;BME280;40029;58.708;50.190;2022-11-22T17:01:55;100800.56;;;-8.01;42.01
54122;BME280;40029;58.708;50.190;2022-11-22T17:04:26;100788.94;;;-8.14;42.11
54122;BME280;40029;58.708;50.190;2022-11-22T17:06:58;100794.00;;;-8.14;42.03
54122;BME280;40029;58.708;50.190;2022-11-22T17:09:29;100778.09;;;-8.28;42.13
54122;BME280;40029;58.708;50.190;2022-11-22T17:12:00;100799.84;;;-8.15;42.14
54122;BME280;40029;58.708;50.190;2022-11-22T17:14:31;100754.31;;;-8.48;42.17
54122;BME280;40029;58.708;50.190;2022-11-22T17:17:02;100796.72;;;-8.26;41.97
54122;BME280;40029;58.708;50.190;2022-11-22T17:19:33;100796.56;;;-8.29;42.08
54122;BME280;40029;58.708;50.190;2022-11-22T17:22:08;100789.31;;;-8.23;42.38
54122;BME280;40029;58.708;50.190;2022-11-22T17:24:39;100782.81;;;-8.34;41.87
54122;BME280;40029;58.708;50.190;2022-11-22T17:27:12;100795.94;;;-8.25;42.04
54122;BME280;40029;58.708;50.190;2022-11-22T17:29:46;100789.69;;;-8.32;42.20
54122;BME280;40029;58.708;50.190;2022-11-22T17:32:17;100798.47;;;-8.25;42.15
54122;BME280;40029;58.708;50.190;2022-11-22T17:34:49;100795.69;;;-8.30;41.75
54122;BME280;40029;58.708;50.190;2022-11-22T17:37:20;100794.56;;;-8.35;42.03
54122;BME280;40029;58.708;50.190;2022-11-22T17:39:51;100778.72;;;-8.48;42.29
54122;BME280;40029;58.708;50.190;2022-11-22T17:42:22;100801.59;;;-8.45;42.36
54122;BME280;40029;58.708;50.190;2022-11-22T17:44:53;100794.31;;;-8.56;41.88
54122;BME280;40029;58.708;50.190;2022-11-22T17:47:24;100781.09;;;-8.66;42.14
54122;BME280;40029;58.708;50.190;2022-11-22T17:49:57;100786.84;;;-8.69;42.05
54122;BME280;40029;58.708;50.190;2022-11-22T17:52:28;100791.28;;;-8.65;41.96
54122;BME280;40029;58.708;50.190;2022-11-22T17:54:59;100781.28;;;-8.78;41.81
54122;BME280;40029;58.708;50.190;2022-11-22T17:57:30;100784.16;;;-8.72;41.87
54122;BME280;40029;58.708;50.190;2022-11-22T18:00:05;100780.44;;;-8.78;41.72
54122;BME280;40029;58.708;50.190;2022-11-22T18:02:37;100765.09;;;-8.82;41.58
54122;BME280;40029;58.708;50.190;2022-11-22T18:05:08;100715.50;;;-9.11;41.42
54122;BME280;40029;58.708;50.190;2022-11-22T18:07:39;100764.75;;;-8.88;41.56
54122;BME280;40029;58.708;50.190;2022-11-22T18:10:11;100766.34;;;-9.04;41.71
54122;BME280;40029;58.708;50.190;2022-11-22T18:12:43;100797.31;;;-8.92;41.81
54122;BME280;40029;58.708;50.190;2022-11-22T18:15:15;100797.91;;;-8.96;41.66
54122;BME280;40029;58.708;50.190;2022-11-22T18:17:46;100808.31;;;-8.92;41.63
54122;BME280;40029;58.708;50.190;2022-11-22T18:20:17;100794.38;;;-9.00;41.61
54122;BME280;40029;58.708;50.190;2022-11-22T18:22:48;100797.25;;;-8.94;41.99
54122;BME280;40029;58.708;50.190;2022-11-22T18:25:22;100799.84;;;-8.92;41.71
54122;BME280;40029;58.708;50.190;2022-11-22T18:27:53;100810.75;;;-8.78;41.68
54122;BME280;40029;58.708;50.190;2022-11-22T18:30:24;100773.41;;;-8.99;41.73
54122;BME280;40029;58.708;50.190;2022-11-22T18:32:56;100801.13;;;-8.84;41.47
54122;BME280;40029;58.708;50.190;2022-11-22T18:35:27;100813.41;;;-8.75;41.45
54122;BME280;40029;58.708;50.190;2022-11-22T18:37:58;100804.63;;;-8.82;41.53
54122;BME280;40029;58.708;50.190;2022-11-22T18:40:30;100819.00;;;-8.81;41.50
54122;BME280;40029;58.708;50.190;2022-11-22T18:43:01;100818.66;;;-8.87;41.60
54122;BME280;40029;58.708;50.190;2022-11-22T18:45:32;100819.44;;;-8.88;41.46
54122;BME280;40029;58.708;50.190;2022-11-22T18:48:04;100826.41;;;-8.84;41.40
54122;BME280;40029;58.708;50.190;2022-11-22T18:50:36;100791.59;;;-9.04;41.38
54122;BME280;40029;58.708;50.190;2022-11-22T18:53:07;100825.28;;;-8.89;41.80
54122;BME280;40029;58.708;50.190;2022-11-22T18:55:38;100815.00;;;-8.92;41.71
54122;BME280;40029;58.708;50.190;2022-11-22T18:58:09;100817.88;;;-8.86;41.81
54122;BME280;40029;58.708;50.190;2022-11-22T19:00:40;100813.69;;;-8.86;41.43
54122;BME280;40029;58.708;50.190;2022-11-22T19:03:11;100818.75;;;-8.86;41.48
54122;BME280;40029;58.708;50.190;2022-11-22T19:05:42;100821.09;;;-8.89;41.72
54122;BME280;40029;58.708;50.190;2022-11-22T19:08:14;100813.78;;;-8.99;41.92
54122;BME280;40029;58.708;50.190;2022-11-22T19:10:54;100798.00;;;-9.10;41.98
54122;BME280;40029;58.708;50.190;2022-11-22T19:13:25;100799.94;;;-9.06;42.26
54122;BME280;40029;58.708;50.190;2022-11-22T19:16:04;100815.94;;;-9.05;41.91
54122;BME280;40029;58.708;50.190;2022-11-22T19:18:36;100820.03;;;-9.22;42.19
54122;BME280;40029;58.708;50.190;2022-11-22T19:21:09;100812.63;;;-9.19;42.15
54122;BME280;40029;58.708;50.190;2022-11-22T19:23:41;100820.41;;;-9.16;42.41
54122;BME280;40029;58.708;50.190;2022-11-22T19:26:20;100815.28;;;-9.17;42.22
54122;BME280;40029;58.708;50.190;2022-11-22T19:28:54;100827.25;;;-9.13;41.96
54122;BME280;40029;58.708;50.190;2022-11-22T19:31:27;100823.53;;;-9.20;41.94
54122;BME280;40029;58.708;50.190;2022-11-22T19:33:59;100824.91;;;-9.25;41.43
54122;BME280;40029;58.708;50.190;2022-11-22T19:36:30;100806.88;;;-9.46;41.86
54122;BME280;40029;58.708;50.190;2022-11-22T19:39:03;100825.00;;;-9.38;41.80
54122;BME280;40029;58.708;50.190;2022-11-22T19:41:35;100823.28;;;-9.52;42.04
54122;BME280;40029;58.708;50.190;2022-11-22T19:44:06;100835.41;;;-9.47;41.74
54122;BME280;40029;58.708;50.190;2022-11-22T19:46:38;100837.03;;;-9.47;41.99
54122;BME280;40029;58.708;50.190;2022-11-22T19:49:11;100830.53;;;-9.44;41.98
54122;BME280;40029;58.708;50.190;2022-11-22T19:51:42;100827.06;;;-9.46;41.86
54122;BME280;40029;58.708;50.190;2022-11-22T19:54:13;100811.06;;;-9.46;41.51
54122;BME280;40029;58.708;50.190;2022-11-22T19:56:45;100765.06;;;-9.70;41.71
54122;BME280;40029;58.708;50.190;2022-11-22T19:59:16;100811.66;;;-9.36;41.60
54122;BME280;40029;58.708;50.190;2022-11-22T20:01:48;100785.91;;;-9.45;41.62
54122;BME280;40029;58.708;50.190;2022-11-22T20:04:19;100824.47;;;-9.33;41.77
54122;BME280;40029;58.708;50.190;2022-11-22T20:06:49;100828.84;;;-9.30;41.72
54122;BME280;40029;58.708;50.190;2022-11-22T20:09:21;100825.41;;;-9.31;41.98
54122;BME280;40029;58.708;50.190;2022-11-22T20:11:52;100822.41;;;-9.25;41.74
54122;BME280;40029;58.708;50.190;2022-11-22T20:14:24;100774.56;;;-9.66;41.80
54122;BME280;40029;58.708;50.190;2022-11-22T20:16:55;100816.00;;;-9.48;41.71
54122;BME280;40029;58.708;50.190;2022-11-22T20:19:26;100760.28;;;-9.80;42.10
54122;BME280;40029;58.708;50.190;2022-11-22T20:21:57;100843.97;;;-9.30;41.97
54122;BME280;40029;58.708;50.190;2022-11-22T20:24:28;100822.81;;;-9.47;41.90
54122;BME280;40029;58.708;50.190;2022-11-22T20:26:59;100746.34;;;-9.89;41.72
54122;BME280;40029;58.708;50.190;2022-11-22T20:29:32;100760.63;;;-9.74;41.57
54122;BME280;40029;58.708;50.190;2022-11-22T20:32:03;100784.97;;;-9.47;41.62
54122;BME280;40029;58.708;50.190;2022-11-22T20:34:35;100795.75;;;-9.35;41.61
54122;BME280;40029;58.708;50.190;2022-11-22T20:37:06;100766.41;;;-9.47;41.54
54122;BME280;40029;58.708;50.190;2022-11-22T20:39:37;100812.91;;;-9.29;41.39
54122;BME280;40029;58.708;50.190;2022-11-22T20:42:08;100739.78;;;-9.72;41.38
54122;BME280;40029;58.708;50.190;2022-11-22T20:44:39;100735.72;;;-9.55;40.87
54122;BME280;40029;58.708;50.190;2022-11-22T20:47:10;100750.25;;;-9.51;41.13
54122;BME280;40029;58.708;50.190;2022-11-22T20:49:41;100728.91;;;-9.56;41.14
54122;BME280;40029;58.708;50.190;2022-11-22T20:52:12;100732.59;;;-9.51;41.33
54122;BME280;40029;58.708;50.190;2022-11-22T20:54:43;100751.44;;;-9.44;41.35
54122;BME280;40029;58.708;50.190;2022-11-22T20:57:14;100732.22;;;-9.57;41.58
54122;BME280;40029;58.708;50.190;2022-11-22T20:59:45;100834.16;;;-8.96;41.27
54122;BME280;40029;58.708;50.190;2022-11-22T21:02:16;100822.31;;;-9.12;41.59
54122;BME280;40029;58.708;50.190;2022-11-22T21:04:47;100847.03;;;-9.06;41.40
54122;BME280;40029;58.708;50.190;2022-11-22T21:07:18;100845.47;;;-9.04;41.85
54122;BME280;40029;58.708;50.190;2022-11-22T21:09:49;100756.22;;;-9.49;41.41
54122;BME280;40029;58.708;50.190;2022-11-22T21:12:20;100837.03;;;-9.04;41.21
54122;BME280;40029;58.708;50.190;2022-11-22T21:14:51;100870.72;;;-8.89;41.33
54122;BME280;40029;58.708;50.190;2022-11-22T21:17:22;100829.13;;;-8.96;41.24
54122;BME280;40029;58.708;50.190;2022-11-22T21:19:53;100764.25;;;-9.26;41.35
54122;BME280;40029;58.708;50.190;2022-11-22T21:22:24;100852.38;;;-8.87;41.10
54122;BME280;40029;58.708;50.190;2022-11-22T21:24:55;100760.59;;;-9.32;40.81
54122;BME280;40029;58.708;50.190;2022-11-22T21:27:26;100752.34;;;-9.29;41.41
54122;BME280;40029;58.708;50.190;2022-11-22T21:29:57;100833.22;;;-8.83;41.09
54122;BME280;40029;58.708;50.190;2022-11-22T21:32:30;100822.56;;;-8.92;41.12
54122;BME280;40029;58.708;50.190;2022-11-22T21:35:01;100798.19;;;-9.07;41.23
54122;BME280;40029;58.708;50.190;2022-11-22T21:37:33;100837.28;;;-8.85;41.43
54122;BME280;40029;58.708;50.190;2022-11-22T21:40:04;100771.38;;;-9.19;41.56
54122;BME280;40029;58.708;50.190;2022-11-22T21:42:36;100796.47;;;-9.08;41.10
54122;BME280;40029;58.708;50.190;2022-11-22T21:45:08;100784.28;;;-9.15;41.51
54122;BME280;40029;58.708;50.190;2022-11-22T21:47:39;100768.34;;;-9.14;41.21
54122;BME280;40029;58.708;50.190;2022-11-22T21:50:10;100828.38;;;-8.64;41.03
54122;BME280;40029;58.708;50.190;2022-11-22T21:52:42;100816.72;;;-8.62;41.28
54122;BME280;40029;58.708;50.190;2022-11-22T21:55:13;100780.94;;;-8.69;41.23
54122;BME280;40029;58.708;50.190;2022-11-22T21:57:45;100808.94;;;-8.50;41.48
54122;BME280;40029;58.708;50.190;2022-11-22T22:00:16;100793.13;;;-8.62;40.96
54122;BME280;40029;58.708;50.190;2022-11-22T22:02:47;100799.13;;;-8.60;41.27
54122;BME280;40029;58.708;50.190;2022-11-22T22:05:18;100771.75;;;-8.67;41.31
54122;BME280;40029;58.708;50.190;2022-11-22T22:07:49;100808.84;;;-8.37;41.36
54122;BME280;40029;58.708;50.190;2022-11-22T22:10:20;100796.41;;;-8.48;41.83
54122;BME280;40029;58.708;50.190;2022-11-22T22:12:51;100803.88;;;-8.50;41.65
54122;BME280;40029;58.708;50.190;2022-11-22T22:15:22;100808.25;;;-8.47;41.52
54122;BME280;40029;58.708;50.190;2022-11-22T22:17:53;100801.59;;;-8.45;41.46
54122;BME280;40029;58.708;50.190;2022-11-22T22:20:24;100809.19;;;-8.45;41.02
54122;BME280;40029;58.708;50.190;2022-11-22T22:22:55;100770.16;;;-8.82;41.52
54122;BME280;40029;58.708;50.190;2022-11-22T22:25:26;100798.94;;;-8.63;41.33
54122;BME280;40029;58.708;50.190;2022-11-22T22:27:57;100721.97;;;-9.16;41.73
54122;BME280;40029;58.708;50.190;2022-11-22T22:30:28;100785.88;;;-8.71;41.87
54122;BME280;40029;58.708;50.190;2022-11-22T22:32:59;100802.50;;;-8.60;41.79
54122;BME280;40029;58.708;50.190;2022-11-22T22:35:30;100802.50;;;-8.60;41.90
54122;BME280;40029;58.708;50.190;2022-11-22T22:38:01;100785.38;;;-8.65;41.72
54122;BME280;40029;58.708;50.190;2022-11-22T22:40:32;100777.97;;;-8.62;41.75
54122;BME280;40029;58.708;50.190;2022-11-22T22:43:03;100777.84;;;-8.49;41.84
54122;BME280;40029;58.708;50.190;2022-11-22T22:45:34;100741.03;;;-8.75;41.76
54122;BME280;40029;58.708;50.190;2022-11-22T22:48:05;100720.13;;;-8.72;41.93
54122;BME280;40029;58.708;50.190;2022-11-22T22:50:36;100748.84;;;-8.56;42.15
54122;BME280;40029;58.708;50.190;2022-11-22T22:53:07;100761.50;;;-8.39;41.62
54122;BME280;40029;58.708;50.190;2022-11-22T22:55:38;100738.19;;;-8.34;42.00
54122;BME280;40029;58.708;50.190;2022-11-22T22:58:09;100678.47;;;-8.64;41.59
54122;BME280;40029;58.708;50.190;2022-11-22T23:00:40;100694.91;;;-8.56;41.69
54122;BME280;40029;58.708;50.190;2022-11-22T23:03:11;100700.91;;;-8.54;41.86
54122;BME280;40029;58.708;50.190;2022-11-22T23:05:43;100735.66;;;-8.34;42.34
54122;BME280;40029;58.708;50.190;2022-11-22T23:08:14;100671.06;;;-8.61;42.02
54122;BME280;40029;58.708;50.190;2022-11-22T23:10:45;100717.03;;;-8.19;41.96
54122;BME280;40029;58.708;50.190;2022-11-22T23:13:16;100708.19;;;-8.27;42.35
54122;BME280;40029;58.708;50.190;2022-11-22T23:15:47;100705.03;;;-8.23;42.48
54122;BME280;40029;58.708;50.190;2022-11-22T23:18:18;100756.84;;;-7.83;42.21
54122;BME280;40029;58.708;50.190;2022-11-22T23:20:49;100700.84;;;-8.07;42.53
54122;BME280;40029;58.708;50.190;2022-11-22T23:23:20;100698.84;;;-8.12;42.26
54122;BME280;40029;58.708;50.190;2022-11-22T23:25:51;100709.06;;;-8.11;42.53
54122;BME280;40029;58.708;50.190;2022-11-22T23:28:22;100624.81;;;-8.60;42.23
54122;BME280;40029;58.708;50.190;2022-11-22T23:30:53;100711.66;;;-8.09;42.35
54122;BME280;40029;58.708;50.190;2022-11-22T23:33:24;100705.97;;;-8.21;42.51
54122;BME280;40029;58.708;50.190;2022-11-22T23:36:00;100708.03;;;-8.14;42.86
54122;BME280;40029;58.708;50.190;2022-11-22T23:38:31;100687.16;;;-8.26;42.35
54122;BME280;40029;58.708;50.190;2022-11-22T23:41:03;100703.19;;;-8.26;42.67
54122;BME280;40029;58.708;50.190;2022-11-22T23:43:34;100687.88;;;-8.29;42.85
54122;BME280;40029;58.708;50.190;2022-11-22T23:46:05;100684.56;;;-8.28;42.85
54122;BME280;40029;58.708;50.190;2022-11-22T23:48:36;100675.78;;;-8.35;42.47
54122;BME280;40029;58.708;50.190;2022-11-22T23:51:08;100730.69;;;-7.99;42.78
54122;BME280;40029;58.708;50.190;2022-11-22T23:53:40;100729.44;;;-7.91;42.68
54122;BME280;40029;58.708;50.190;2022-11-22T23:56:16;100722.06;;;-7.87;42.84
54122;BME280;40029;58.708;50.190;2022-11-22T23:58:47;100702.72;;;-7.86;42.58
